Hlavní strana
METAR-TAF:

METAR-TAF

Letiště :

Monticello, Kentucky, Spojené státy americké

zeměpisná šířka: 36-51-19N, zeměpisná délka: 084-51-22W, výška: 294 m

Aktuální stav počasí

Zpráva byla vytvořena před 37 minutami, v 19:12 UTC
Západoseverozápadní vítr 5 kt s nárazy do 18 kt
Teplota 13°C
Vlhkost vzduchu 100%
Tlak 1017 hPa
Viditelnost: 2.4 km
Oblačno až skoro zataženo ve výšce 700 ft
Zataženo ve výšce 1800 ft
slabý déšť, kouřmo

METAR: KEKQ 181912Z AUTO 29005G18KT 1 1/2SM -RA BR BKN007 OVC018 13/13 A3004 RMK AO2 CIG 005V010 PRESFR PNO $

Čas: 14:49 (19:49 UTC)


TAF: chybějící

Stav a předpovědi počasí z více než 4 000 letišť (zprávy METAR a TAF).

Červené a žluté tečky na mapě představují dostupné meteorologické stanice.

Když kurzor umístíte na tečku, zobrazí se název stanice.

Pak kliknutím zobrazíte stav a předpověď počasí.

Chcete-li změnit mapu, kliknutím na zelené tlačítko se znaménkem +mapu přiblížíte, kliknutím na zelené tlačítko se znaménkem – mapu oddálíte a kliknutím na zelené šipky přejdete na sousední mapy.


METAR-TAF: